Aérodrome :
LOGIN :

S'inscrire | Disclaimer

   EN    FR    IT 

 










Légende :    VFR   VFR Marginal   IFR   IFR Intensif   IFR Très Intensif
Visi : 
Plafond : 
>= 8 km
>= 3000ft
5 à 8 km
1000 à 3000 ft
1500m à 5 km
500 à 1000 ft
800 à 1500m
200 à 500 ft
< 800m
< 200 ft
Symboles :   Orages  Brouillard  Fortes neiges  Fortes précipitations  Vent > 20 kt
SIGMETs :   Divers  Orages  Givrage  Turbulence  Onde Orograph.  Cendres Volcan.







- Altitude de l'aérodrome : 459 ft
- Code IATA : CER
- Voir les cartes d'approche


LFRC - Cherbourg / Maupertus

DERNIER METAR :
  • 192100Z AUTO 22009KT 9999 SCT033 SCT240 16/14 Q1018

METARs EXPIRÉS :
  • 192030Z AUTO 21009KT 9999 FEW038 SCT140 16/14 Q1017
  • 192000Z AUTO 22009KT CAVOK 17/14 Q1017
  • 191930Z AUTO 24011KT 9999 FEW015 SCT032 BKN056 17/14 Q1018
  • 191900Z AUTO 24011KT 9999 BKN016 OVC026 18/14 Q1017
  • 191830Z AUTO 24012KT 9999 OVC015 19/15 Q1017

TAF TAF LFRC
Valide du 19 à 15h jusqu'au 20 à 00h UTC


191400Z 1915/1924 24020G30KT 9999 BKN025
BECMG 1917/1919 24010KT
Pas de NOTAMs connus pour ce terrain.



MET'MAP, la Météo Aéronautique d'un coup d'oeil ! - Copyright ORBIFLY Décembre 2007 - Disclaimer

ORBIFLY MET'MAP TEAM :

Programmation & Développement : Alexandra Zaïnal
Conception & Développement : Baudouin d'Aumeries
Co-Programmation & Développement : Marc-Olivier Méhu
Soutien technique & logistique : Manuel Goepfert

Contact : metmap@orbifly.com




SOURCES & CREDITS :

   NOAA